sensor_id;sensor_type;location;lat;lon;timestamp;temperature;humidity
41928;DHT22;27616;51.420;6.788;2024-01-10T00:01:22;-4.40;99.90
41928;DHT22;27616;51.420;6.788;2024-01-10T00:03:54;-4.40;99.90
41928;DHT22;27616;51.420;6.788;2024-01-10T00:06:20;-4.30;99.90
41928;DHT22;27616;51.420;6.788;2024-01-10T00:08:46;-4.40;99.90
41928;DHT22;27616;51.420;6.788;2024-01-10T00:11:12;-4.40;99.90
41928;DHT22;27616;51.420;6.788;2024-01-10T00:13:37;-4.40;99.90
41928;DHT22;27616;51.420;6.788;2024-01-10T00:16:03;-4.40;99.90
41928;DHT22;27616;51.420;6.788;2024-01-10T00:18:30;-4.40;99.90
41928;DHT22;27616;51.420;6.788;2024-01-10T00:20:55;-4.40;99.90
41928;DHT22;27616;51.420;6.788;2024-01-10T00:23:21;-4.40;99.90
41928;DHT22;27616;51.420;6.788;2024-01-10T00:25:48;-4.40;99.90
41928;DHT22;27616;51.420;6.788;2024-01-10T00:28:14;-4.30;99.90
41928;DHT22;27616;51.420;6.788;2024-01-10T00:30:42;-4.30;99.90
41928;DHT22;27616;51.420;6.788;2024-01-10T00:33:07;-4.30;99.70
41928;DHT22;27616;51.420;6.788;2024-01-10T00:35:33;-4.30;99.90
41928;DHT22;27616;51.420;6.788;2024-01-10T00:37:58;-4.30;99.90
41928;DHT22;27616;51.420;6.788;2024-01-10T00:40:25;-4.30;99.90
41928;DHT22;27616;51.420;6.788;2024-01-10T00:42:50;-4.40;99.90
41928;DHT22;27616;51.420;6.788;2024-01-10T00:45:16;-4.40;99.90
41928;DHT22;27616;51.420;6.788;2024-01-10T00:47:42;-4.40;99.90
41928;DHT22;27616;51.420;6.788;2024-01-10T00:50:08;-4.40;99.70
41928;DHT22;27616;51.420;6.788;2024-01-10T00:52:33;-4.30;99.30
41928;DHT22;27616;51.420;6.788;2024-01-10T00:54:59;-4.30;99.70
41928;DHT22;27616;51.420;6.788;2024-01-10T00:57:25;-4.40;99.70
41928;DHT22;27616;51.420;6.788;2024-01-10T00:59:50;-4.40;99.60
41928;DHT22;27616;51.420;6.788;2024-01-10T01:02:16;-4.40;99.80
41928;DHT22;27616;51.420;6.788;2024-01-10T01:04:42;-4.40;99.40
41928;DHT22;27616;51.420;6.788;2024-01-10T01:07:07;-4.40;99.40
41928;DHT22;27616;51.420;6.788;2024-01-10T01:09:33;-4.40;99.70
41928;DHT22;27616;51.420;6.788;2024-01-10T01:11:59;-4.40;99.50
41928;DHT22;27616;51.420;6.788;2024-01-10T01:14:25;-4.40;99.30
41928;DHT22;27616;51.420;6.788;2024-01-10T01:16:50;-4.30;99.40
41928;DHT22;27616;51.420;6.788;2024-01-10T01:19:16;-4.40;99.50
41928;DHT22;27616;51.420;6.788;2024-01-10T01:21:42;-4.40;99.50
41928;DHT22;27616;51.420;6.788;2024-01-10T01:24:08;-4.40;99.40
41928;DHT22;27616;51.420;6.788;2024-01-10T01:26:33;-4.40;99.40
41928;DHT22;27616;51.420;6.788;2024-01-10T01:28:59;-4.40;99.70
41928;DHT22;27616;51.420;6.788;2024-01-10T01:31:24;-4.50;99.60
41928;DHT22;27616;51.420;6.788;2024-01-10T01:33:50;-4.50;99.70
41928;DHT22;27616;51.420;6.788;2024-01-10T01:36:16;-4.50;99.50
41928;DHT22;27616;51.420;6.788;2024-01-10T01:38:41;-4.60;99.60
41928;DHT22;27616;51.420;6.788;2024-01-10T01:41:07;-4.50;99.90
41928;DHT22;27616;51.420;6.788;2024-01-10T01:43:33;-4.50;99.90
41928;DHT22;27616;51.420;6.788;2024-01-10T01:45:59;-4.60;99.90
41928;DHT22;27616;51.420;6.788;2024-01-10T01:48:24;-4.50;99.90
41928;DHT22;27616;51.420;6.788;2024-01-10T01:51:02;-4.50;99.90
41928;DHT22;27616;51.420;6.788;2024-01-10T01:53:30;-4.60;99.90
41928;DHT22;27616;51.420;6.788;2024-01-10T01:55:56;-4.50;99.90
41928;DHT22;27616;51.420;6.788;2024-01-10T01:58:23;-4.60;99.90
41928;DHT22;27616;51.420;6.788;2024-01-10T02:00:49;-4.60;99.90
41928;DHT22;27616;51.420;6.788;2024-01-10T02:03:15;-4.60;99.90
41928;DHT22;27616;51.420;6.788;2024-01-10T02:05:41;-4.60;99.90
41928;DHT22;27616;51.420;6.788;2024-01-10T02:08:08;-4.70;99.90
41928;DHT22;27616;51.420;6.788;2024-01-10T02:10:34;-4.70;99.90
41928;DHT22;27616;51.420;6.788;2024-01-10T02:13:00;-4.60;99.90
41928;DHT22;27616;51.420;6.788;2024-01-10T02:15:26;-4.70;99.90
41928;DHT22;27616;51.420;6.788;2024-01-10T02:17:52;-4.70;99.90
41928;DHT22;27616;51.420;6.788;2024-01-10T02:20:17;-4.80;99.90
41928;DHT22;27616;51.420;6.788;2024-01-10T02:22:43;-4.80;99.90
41928;DHT22;27616;51.420;6.788;2024-01-10T02:25:10;-4.80;99.90
41928;DHT22;27616;51.420;6.788;2024-01-10T02:27:36;-4.90;99.90
41928;DHT22;27616;51.420;6.788;2024-01-10T02:30:04;-4.90;99.90
41928;DHT22;27616;51.420;6.788;2024-01-10T02:32:30;-5.00;99.90
41928;DHT22;27616;51.420;6.788;2024-01-10T02:34:56;-5.00;99.90
41928;DHT22;27616;51.420;6.788;2024-01-10T02:37:22;-5.10;99.90
41928;DHT22;27616;51.420;6.788;2024-01-10T02:39:48;-5.10;99.90
41928;DHT22;27616;51.420;6.788;2024-01-10T02:42:13;-5.00;99.90
41928;DHT22;27616;51.420;6.788;2024-01-10T02:44:39;-5.10;99.90
41928;DHT22;27616;51.420;6.788;2024-01-10T02:47:05;-5.10;99.90
41928;DHT22;27616;51.420;6.788;2024-01-10T02:49:31;-5.10;99.90
41928;DHT22;27616;51.420;6.788;2024-01-10T02:51:57;-5.00;99.90
41928;DHT22;27616;51.420;6.788;2024-01-10T02:54:23;-5.10;99.90
41928;DHT22;27616;51.420;6.788;2024-01-10T02:56:48;-5.10;99.90
41928;DHT22;27616;51.420;6.788;2024-01-10T02:59:14;-5.20;99.90
41928;DHT22;27616;51.420;6.788;2024-01-10T03:01:39;-5.20;99.90
41928;DHT22;27616;51.420;6.788;2024-01-10T03:04:05;-5.20;99.90
41928;DHT22;27616;51.420;6.788;2024-01-10T03:06:31;-5.30;99.90
41928;DHT22;27616;51.420;6.788;2024-01-10T03:08:56;-5.30;99.90
41928;DHT22;27616;51.420;6.788;2024-01-10T03:11:22;-5.30;99.90
41928;DHT22;27616;51.420;6.788;2024-01-10T03:13:49;-5.30;99.90
41928;DHT22;27616;51.420;6.788;2024-01-10T03:16:15;-5.40;99.90
41928;DHT22;27616;51.420;6.788;2024-01-10T03:18:41;-5.40;99.90
41928;DHT22;27616;51.420;6.788;2024-01-10T03:21:07;-5.40;99.90
41928;DHT22;27616;51.420;6.788;2024-01-10T03:23:32;-5.40;99.90
41928;DHT22;27616;51.420;6.788;2024-01-10T03:25:58;-5.40;99.90
41928;DHT22;27616;51.420;6.788;2024-01-10T03:28:23;-5.40;99.90
41928;DHT22;27616;51.420;6.788;2024-01-10T03:30:49;-5.40;99.90
41928;DHT22;27616;51.420;6.788;2024-01-10T03:33:15;-5.50;99.90
41928;DHT22;27616;51.420;6.788;2024-01-10T03:35:41;-5.50;99.90
41928;DHT22;27616;51.420;6.788;2024-01-10T03:38:07;-5.40;99.90
41928;DHT22;27616;51.420;6.788;2024-01-10T03:40:33;-5.40;99.90
41928;DHT22;27616;51.420;6.788;2024-01-10T03:42:59;-5.30;99.90
41928;DHT22;27616;51.420;6.788;2024-01-10T03:45:24;-5.30;99.90
41928;DHT22;27616;51.420;6.788;2024-01-10T03:47:50;-5.40;99.90
41928;DHT22;27616;51.420;6.788;2024-01-10T03:50:19;-5.50;99.90
41928;DHT22;27616;51.420;6.788;2024-01-10T03:52:46;-5.50;99.90
41928;DHT22;27616;51.420;6.788;2024-01-10T03:55:12;-5.60;99.90
41928;DHT22;27616;51.420;6.788;2024-01-10T03:57:41;-5.60;99.90
41928;DHT22;27616;51.420;6.788;2024-01-10T04:00:08;-5.60;99.90
41928;DHT22;27616;51.420;6.788;2024-01-10T04:02:36;-5.50;99.90
41928;DHT22;27616;51.420;6.788;2024-01-10T04:05:01;-5.50;99.90
41928;DHT22;27616;51.420;6.788;2024-01-10T04:07:27;-5.50;99.90
41928;DHT22;27616;51.420;6.788;2024-01-10T04:09:53;-5.60;99.90
41928;DHT22;27616;51.420;6.788;2024-01-10T04:12:19;-5.60;99.90
41928;DHT22;27616;51.420;6.788;2024-01-10T04:14:46;-5.70;99.90
41928;DHT22;27616;51.420;6.788;2024-01-10T04:17:11;-5.70;99.90
41928;DHT22;27616;51.420;6.788;2024-01-10T04:19:37;-5.70;99.90
41928;DHT22;27616;51.420;6.788;2024-01-10T04:22:02;-5.70;99.90
41928;DHT22;27616;51.420;6.788;2024-01-10T04:24:28;-5.70;99.90
41928;DHT22;27616;51.420;6.788;2024-01-10T04:26:54;-5.60;99.90
41928;DHT22;27616;51.420;6.788;2024-01-10T04:29:20;-5.60;99.90
41928;DHT22;27616;51.420;6.788;2024-01-10T04:31:45;-5.70;99.90
41928;DHT22;27616;51.420;6.788;2024-01-10T04:34:11;-5.70;99.90
41928;DHT22;27616;51.420;6.788;2024-01-10T04:36:37;-5.80;99.90
41928;DHT22;27616;51.420;6.788;2024-01-10T04:39:02;-5.80;99.90
41928;DHT22;27616;51.420;6.788;2024-01-10T04:41:28;-5.80;99.90
41928;DHT22;27616;51.420;6.788;2024-01-10T04:43:53;-5.80;99.90
41928;DHT22;27616;51.420;6.788;2024-01-10T04:46:19;-5.70;99.90
41928;DHT22;27616;51.420;6.788;2024-01-10T04:48:45;-5.70;99.90
41928;DHT22;27616;51.420;6.788;2024-01-10T04:51:10;-5.70;99.90
41928;DHT22;27616;51.420;6.788;2024-01-10T04:53:36;-5.80;99.90
41928;DHT22;27616;51.420;6.788;2024-01-10T04:56:01;-5.80;99.90
41928;DHT22;27616;51.420;6.788;2024-01-10T04:58:27;-5.80;99.90
41928;DHT22;27616;51.420;6.788;2024-01-10T05:00:54;-5.80;99.90
41928;DHT22;27616;51.420;6.788;2024-01-10T05:03:19;-5.80;99.90
41928;DHT22;27616;51.420;6.788;2024-01-10T05:05:45;-5.90;99.90
41928;DHT22;27616;51.420;6.788;2024-01-10T05:08:11;-5.90;99.90
41928;DHT22;27616;51.420;6.788;2024-01-10T05:10:36;-5.90;99.90
41928;DHT22;27616;51.420;6.788;2024-01-10T05:13:02;-5.80;99.90
41928;DHT22;27616;51.420;6.788;2024-01-10T05:15:28;-5.70;99.90
41928;DHT22;27616;51.420;6.788;2024-01-10T05:17:53;-5.80;99.90
41928;DHT22;27616;51.420;6.788;2024-01-10T05:20:19;-5.80;99.90
41928;DHT22;27616;51.420;6.788;2024-01-10T05:22:44;-5.70;99.90
41928;DHT22;27616;51.420;6.788;2024-01-10T05:25:10;-5.70;99.90
41928;DHT22;27616;51.420;6.788;2024-01-10T05:27:36;-5.70;99.90
41928;DHT22;27616;51.420;6.788;2024-01-10T05:30:01;-5.70;99.90
41928;DHT22;27616;51.420;6.788;2024-01-10T05:32:27;-5.70;99.90
41928;DHT22;27616;51.420;6.788;2024-01-10T05:34:54;-5.60;99.90
41928;DHT22;27616;51.420;6.788;2024-01-10T05:37:19;-5.70;99.90
41928;DHT22;27616;51.420;6.788;2024-01-10T05:39:45;-5.80;99.90
41928;DHT22;27616;51.420;6.788;2024-01-10T05:42:10;-5.70;99.90
41928;DHT22;27616;51.420;6.788;2024-01-10T05:44:37;-5.70;99.90
41928;DHT22;27616;51.420;6.788;2024-01-10T05:47:02;-5.70;99.90
41928;DHT22;27616;51.420;6.788;2024-01-10T05:49:28;-5.70;99.90
41928;DHT22;27616;51.420;6.788;2024-01-10T05:51:54;-5.80;99.90
41928;DHT22;27616;51.420;6.788;2024-01-10T05:54:20;-5.80;99.90
41928;DHT22;27616;51.420;6.788;2024-01-10T05:56:45;-5.80;99.90
41928;DHT22;27616;51.420;6.788;2024-01-10T05:59:11;-5.70;99.90
41928;DHT22;27616;51.420;6.788;2024-01-10T06:01:37;-5.70;99.90
41928;DHT22;27616;51.420;6.788;2024-01-10T06:04:04;-5.70;99.90
41928;DHT22;27616;51.420;6.788;2024-01-10T06:06:31;-5.60;99.90
41928;DHT22;27616;51.420;6.788;2024-01-10T06:08:57;-5.60;99.90
41928;DHT22;27616;51.420;6.788;2024-01-10T06:11:23;-5.60;99.90
41928;DHT22;27616;51.420;6.788;2024-01-10T06:13:49;-5.60;99.90
41928;DHT22;27616;51.420;6.788;2024-01-10T06:16:15;-5.60;99.90
41928;DHT22;27616;51.420;6.788;2024-01-10T06:18:40;-5.70;99.90
41928;DHT22;27616;51.420;6.788;2024-01-10T06:21:06;-5.60;99.90
41928;DHT22;27616;51.420;6.788;2024-01-10T06:23:31;-5.70;99.90
41928;DHT22;27616;51.420;6.788;2024-01-10T06:25:57;-5.70;99.90
41928;DHT22;27616;51.420;6.788;2024-01-10T06:28:23;-5.70;99.90
41928;DHT22;27616;51.420;6.788;2024-01-10T06:30:51;-5.70;99.90
41928;DHT22;27616;51.420;6.788;2024-01-10T06:33:17;-5.60;99.90
41928;DHT22;27616;51.420;6.788;2024-01-10T06:35:45;-5.60;99.90
41928;DHT22;27616;51.420;6.788;2024-01-10T06:38:11;-5.60;99.90
41928;DHT22;27616;51.420;6.788;2024-01-10T06:40:37;-5.70;99.90
41928;DHT22;27616;51.420;6.788;2024-01-10T06:43:05;-5.60;99.90
41928;DHT22;27616;51.420;6.788;2024-01-10T06:45:34;-5.60;99.90
41928;DHT22;27616;51.420;6.788;2024-01-10T06:47:59;-5.70;99.90
41928;DHT22;27616;51.420;6.788;2024-01-10T06:50:25;-5.70;99.90
41928;DHT22;27616;51.420;6.788;2024-01-10T06:52:50;-5.60;99.90
41928;DHT22;27616;51.420;6.788;2024-01-10T06:55:16;-5.60;99.90
41928;DHT22;27616;51.420;6.788;2024-01-10T06:57:43;-5.60;99.90
41928;DHT22;27616;51.420;6.788;2024-01-10T07:00:09;-5.70;99.90
41928;DHT22;27616;51.420;6.788;2024-01-10T07:02:39;-5.80;99.90
41928;DHT22;27616;51.420;6.788;2024-01-10T07:05:09;-5.80;99.90
41928;DHT22;27616;51.420;6.788;2024-01-10T07:07:34;-5.80;99.90
41928;DHT22;27616;51.420;6.788;2024-01-10T07:10:01;-5.80;99.90
41928;DHT22;27616;51.420;6.788;2024-01-10T07:12:30;-5.80;99.90
41928;DHT22;27616;51.420;6.788;2024-01-10T07:14:56;-5.80;99.90
41928;DHT22;27616;51.420;6.788;2024-01-10T07:17:22;-5.80;99.90
41928;DHT22;27616;51.420;6.788;2024-01-10T07:19:48;-5.80;99.90
41928;DHT22;27616;51.420;6.788;2024-01-10T07:22:14;-5.80;99.90
41928;DHT22;27616;51.420;6.788;2024-01-10T07:24:39;-5.70;99.90
41928;DHT22;27616;51.420;6.788;2024-01-10T07:27:05;-5.70;99.90
41928;DHT22;27616;51.420;6.788;2024-01-10T07:29:32;-5.70;99.90
41928;DHT22;27616;51.420;6.788;2024-01-10T07:31:58;-5.60;99.90
41928;DHT22;27616;51.420;6.788;2024-01-10T07:34:23;-5.70;99.90
41928;DHT22;27616;51.420;6.788;2024-01-10T07:36:49;-5.70;99.90
41928;DHT22;27616;51.420;6.788;2024-01-10T07:39:14;-5.70;99.90
41928;DHT22;27616;51.420;6.788;2024-01-10T07:41:46;-5.80;99.90
41928;DHT22;27616;51.420;6.788;2024-01-10T07:44:15;-5.70;99.90
41928;DHT22;27616;51.420;6.788;2024-01-10T07:46:40;-5.60;99.90
41928;DHT22;27616;51.420;6.788;2024-01-10T07:49:07;-5.60;99.90
41928;DHT22;27616;51.420;6.788;2024-01-10T07:51:34;-5.60;99.90
41928;DHT22;27616;51.420;6.788;2024-01-10T07:53:59;-5.60;99.90
41928;DHT22;27616;51.420;6.788;2024-01-10T07:56:25;-5.60;99.90
41928;DHT22;27616;51.420;6.788;2024-01-10T07:58:50;-5.50;99.90
41928;DHT22;27616;51.420;6.788;2024-01-10T08:01:17;-5.60;99.90
41928;DHT22;27616;51.420;6.788;2024-01-10T08:03:43;-5.60;99.90
41928;DHT22;27616;51.420;6.788;2024-01-10T08:06:09;-5.50;99.90
41928;DHT22;27616;51.420;6.788;2024-01-10T08:08:37;-5.40;99.90
41928;DHT22;27616;51.420;6.788;2024-01-10T08:11:03;-5.40;99.90
41928;DHT22;27616;51.420;6.788;2024-01-10T08:13:28;-5.50;99.90
41928;DHT22;27616;51.420;6.788;2024-01-10T08:15:54;-5.50;99.90
41928;DHT22;27616;51.420;6.788;2024-01-10T08:18:20;-5.50;99.90
41928;DHT22;27616;51.420;6.788;2024-01-10T08:20:46;-5.50;99.90
41928;DHT22;27616;51.420;6.788;2024-01-10T08:23:11;-5.50;99.90
41928;DHT22;27616;51.420;6.788;2024-01-10T08:25:37;-5.50;99.90
41928;DHT22;27616;51.420;6.788;2024-01-10T08:28:03;-5.50;99.90
41928;DHT22;27616;51.420;6.788;2024-01-10T08:30:29;-5.50;99.90
41928;DHT22;27616;51.420;6.788;2024-01-10T08:32:55;-5.50;99.90
41928;DHT22;27616;51.420;6.788;2024-01-10T08:35:20;-5.40;99.90
41928;DHT22;27616;51.420;6.788;2024-01-10T08:37:46;-5.40;99.90
41928;DHT22;27616;51.420;6.788;2024-01-10T08:40:12;-5.20;99.90
41928;DHT22;27616;51.420;6.788;2024-01-10T08:42:40;-5.20;99.90
41928;DHT22;27616;51.420;6.788;2024-01-10T08:45:06;-5.20;99.90
41928;DHT22;27616;51.420;6.788;2024-01-10T08:47:35;-5.10;99.90
41928;DHT22;27616;51.420;6.788;2024-01-10T08:50:02;-5.10;99.90
41928;DHT22;27616;51.420;6.788;2024-01-10T08:52:27;-5.10;99.90
41928;DHT22;27616;51.420;6.788;2024-01-10T08:54:53;-5.10;99.90
41928;DHT22;27616;51.420;6.788;2024-01-10T08:57:18;-5.00;99.90
41928;DHT22;27616;51.420;6.788;2024-01-10T08:59:44;-5.00;99.90
41928;DHT22;27616;51.420;6.788;2024-01-10T09:02:10;-4.80;99.90
41928;DHT22;27616;51.420;6.788;2024-01-10T09:04:35;-4.80;99.90
41928;DHT22;27616;51.420;6.788;2024-01-10T09:07:01;-4.70;99.90
41928;DHT22;27616;51.420;6.788;2024-01-10T09:09:27;-4.70;99.90
41928;DHT22;27616;51.420;6.788;2024-01-10T09:11:53;-4.60;99.90
41928;DHT22;27616;51.420;6.788;2024-01-10T09:14:18;-4.50;99.90
41928;DHT22;27616;51.420;6.788;2024-01-10T09:16:45;-4.40;99.90
41928;DHT22;27616;51.420;6.788;2024-01-10T09:19:10;-4.40;99.90
41928;DHT22;27616;51.420;6.788;2024-01-10T09:21:36;-4.40;99.90
41928;DHT22;27616;51.420;6.788;2024-01-10T09:24:02;-4.30;99.90
41928;DHT22;27616;51.420;6.788;2024-01-10T09:26:30;-4.20;99.90
41928;DHT22;27616;51.420;6.788;2024-01-10T09:28:56;-4.10;99.90
41928;DHT22;27616;51.420;6.788;2024-01-10T09:31:22;-4.00;99.90
41928;DHT22;27616;51.420;6.788;2024-01-10T09:33:47;-3.90;99.90
41928;DHT22;27616;51.420;6.788;2024-01-10T09:36:13;-3.80;99.90
41928;DHT22;27616;51.420;6.788;2024-01-10T09:38:40;-3.80;99.90
41928;DHT22;27616;51.420;6.788;2024-01-10T09:41:05;-3.70;99.90
41928;DHT22;27616;51.420;6.788;2024-01-10T09:43:31;-3.60;99.90
41928;DHT22;27616;51.420;6.788;2024-01-10T09:46:00;-3.50;99.90
41928;DHT22;27616;51.420;6.788;2024-01-10T09:48:26;-3.30;99.90
41928;DHT22;27616;51.420;6.788;2024-01-10T09:50:52;-3.20;99.90
41928;DHT22;27616;51.420;6.788;2024-01-10T09:53:22;-3.20;99.90
41928;DHT22;27616;51.420;6.788;2024-01-10T09:55:49;-3.00;99.90
41928;DHT22;27616;51.420;6.788;2024-01-10T09:58:15;-2.80;99.90
41928;DHT22;27616;51.420;6.788;2024-01-10T10:00:41;-2.70;99.90
41928;DHT22;27616;51.420;6.788;2024-01-10T10:03:10;-2.50;99.90
41928;DHT22;27616;51.420;6.788;2024-01-10T10:05:38;-1.70;99.90
41928;DHT22;27616;51.420;6.788;2024-01-10T10:08:06;-0.20;98.40
41928;DHT22;27616;51.420;6.788;2024-01-10T10:10:32;1.60;95.90
41928;DHT22;27616;51.420;6.788;2024-01-10T10:12:58;3.30;91.80
41928;DHT22;27616;51.420;6.788;2024-01-10T10:15:25;4.00;90.00
41928;DHT22;27616;51.420;6.788;2024-01-10T10:17:53;4.50;86.50
41928;DHT22;27616;51.420;6.788;2024-01-10T10:20:24;5.10;81.60
41928;DHT22;27616;51.420;6.788;2024-01-10T10:23:03;5.80;78.90
41928;DHT22;27616;51.420;6.788;2024-01-10T10:25:34;6.10;77.00
41928;DHT22;27616;51.420;6.788;2024-01-10T10:28:01;6.40;75.70
41928;DHT22;27616;51.420;6.788;2024-01-10T10:30:31;7.40;71.90
41928;DHT22;27616;51.420;6.788;2024-01-10T10:32:57;7.90;70.60
41928;DHT22;27616;51.420;6.788;2024-01-10T10:35:23;8.20;68.50
41928;DHT22;27616;51.420;6.788;2024-01-10T10:37:50;8.80;67.20
41928;DHT22;27616;51.420;6.788;2024-01-10T10:40:16;9.20;64.50
41928;DHT22;27616;51.420;6.788;2024-01-10T10:42:47;9.40;64.30
41928;DHT22;27616;51.420;6.788;2024-01-10T10:45:16;10.40;60.60
41928;DHT22;27616;51.420;6.788;2024-01-10T10:47:46;10.60;58.30
41928;DHT22;27616;51.420;6.788;2024-01-10T10:50:23;10.20;58.20
41928;DHT22;27616;51.420;6.788;2024-01-10T10:52:50;9.70;59.00
41928;DHT22;27616;51.420;6.788;2024-01-10T10:55:17;9.80;59.10
41928;DHT22;27616;51.420;6.788;2024-01-10T10:57:48;9.50;58.20
41928;DHT22;27616;51.420;6.788;2024-01-10T11:00:19;9.00;58.90
41928;DHT22;27616;51.420;6.788;2024-01-10T11:02:46;8.60;59.60
41928;DHT22;27616;51.420;6.788;2024-01-10T11:05:12;8.50;59.80
41928;DHT22;27616;51.420;6.788;2024-01-10T11:07:39;8.40;59.60
41928;DHT22;27616;51.420;6.788;2024-01-10T11:10:18;8.10;60.00
41928;DHT22;27616;51.420;6.788;2024-01-10T11:20:54;7.50;60.70
41928;DHT22;27616;51.420;6.788;2024-01-10T11:23:40;7.20;61.50
41928;DHT22;27616;51.420;6.788;2024-01-10T11:26:08;7.10;61.40
41928;DHT22;27616;51.420;6.788;2024-01-10T11:28:36;6.90;61.90
41928;DHT22;27616;51.420;6.788;2024-01-10T11:31:03;6.30;63.20
41928;DHT22;27616;51.420;6.788;2024-01-10T11:33:36;6.10;63.50
41928;DHT22;27616;51.420;6.788;2024-01-10T11:36:12;5.90;64.20
41928;DHT22;27616;51.420;6.788;2024-01-10T11:41:23;5.80;64.30
41928;DHT22;27616;51.420;6.788;2024-01-10T11:46:34;5.70;64.80
41928;DHT22;27616;51.420;6.788;2024-01-10T11:49:00;5.20;65.60
41928;DHT22;27616;51.420;6.788;2024-01-10T11:51:26;4.70;67.20
41928;DHT22;27616;51.420;6.788;2024-01-10T11:53:51;4.10;69.10
41928;DHT22;27616;51.420;6.788;2024-01-10T11:56:18;3.80;70.10
41928;DHT22;27616;51.420;6.788;2024-01-10T12:01:21;4.00;70.90
41928;DHT22;27616;51.420;6.788;2024-01-10T12:03:50;4.60;69.40
41928;DHT22;27616;51.420;6.788;2024-01-10T12:06:16;5.20;67.70
41928;DHT22;27616;51.420;6.788;2024-01-10T12:08:43;5.30;67.10
41928;DHT22;27616;51.420;6.788;2024-01-10T12:11:08;5.10;67.70
41928;DHT22;27616;51.420;6.788;2024-01-10T12:13:34;4.60;67.70
41928;DHT22;27616;51.420;6.788;2024-01-10T12:16:00;3.80;69.40
41928;DHT22;27616;51.420;6.788;2024-01-10T12:18:26;3.30;71.10
41928;DHT22;27616;51.420;6.788;2024-01-10T12:20:51;2.90;72.60
41928;DHT22;27616;51.420;6.788;2024-01-10T12:23:17;2.70;73.30
41928;DHT22;27616;51.420;6.788;2024-01-10T12:25:43;2.60;74.50
41928;DHT22;27616;51.420;6.788;2024-01-10T12:28:08;2.90;74.30
41928;DHT22;27616;51.420;6.788;2024-01-10T12:30:34;3.20;73.20
41928;DHT22;27616;51.420;6.788;2024-01-10T12:33:00;3.40;72.60
41928;DHT22;27616;51.420;6.788;2024-01-10T12:35:25;3.50;72.70
41928;DHT22;27616;51.420;6.788;2024-01-10T12:37:55;3.90;72.20
41928;DHT22;27616;51.420;6.788;2024-01-10T12:40:23;4.20;70.70
41928;DHT22;27616;51.420;6.788;2024-01-10T12:42:49;4.40;70.60
41928;DHT22;27616;51.420;6.788;2024-01-10T12:45:24;5.20;69.60
41928;DHT22;27616;51.420;6.788;2024-01-10T12:47:49;6.20;67.40
41928;DHT22;27616;51.420;6.788;2024-01-10T12:50:16;7.30;65.30
41928;DHT22;27616;51.420;6.788;2024-01-10T12:52:42;7.80;63.70
41928;DHT22;27616;51.420;6.788;2024-01-10T12:55:10;8.10;62.80
41928;DHT22;27616;51.420;6.788;2024-01-10T12:57:35;8.80;61.70
41928;DHT22;27616;51.420;6.788;2024-01-10T13:00:01;9.30;60.30
41928;DHT22;27616;51.420;6.788;2024-01-10T13:02:32;9.50;59.20
41928;DHT22;27616;51.420;6.788;2024-01-10T13:05:00;9.70;58.00
41928;DHT22;27616;51.420;6.788;2024-01-10T13:07:26;9.20;58.70
41928;DHT22;27616;51.420;6.788;2024-01-10T13:09:52;8.90;59.40
41928;DHT22;27616;51.420;6.788;2024-01-10T13:12:20;8.40;60.90
41928;DHT22;27616;51.420;6.788;2024-01-10T13:14:45;7.70;60.90
41928;DHT22;27616;51.420;6.788;2024-01-10T13:17:11;7.10;62.30
41928;DHT22;27616;51.420;6.788;2024-01-10T13:19:36;6.70;63.30
41928;DHT22;27616;51.420;6.788;2024-01-10T13:22:02;6.40;64.00
41928;DHT22;27616;51.420;6.788;2024-01-10T13:24:29;6.60;63.30
41928;DHT22;27616;51.420;6.788;2024-01-10T13:26:55;6.50;63.80
41928;DHT22;27616;51.420;6.788;2024-01-10T13:29:21;6.20;63.80
41928;DHT22;27616;51.420;6.788;2024-01-10T13:31:46;5.80;64.70
41928;DHT22;27616;51.420;6.788;2024-01-10T13:34:15;5.30;65.30
41928;DHT22;27616;51.420;6.788;2024-01-10T13:36:41;4.70;66.50
41928;DHT22;27616;51.420;6.788;2024-01-10T13:39:07;3.90;68.60
41928;DHT22;27616;51.420;6.788;2024-01-10T13:41:32;3.30;69.70
41928;DHT22;27616;51.420;6.788;2024-01-10T13:43:59;2.90;71.60
41928;DHT22;27616;51.420;6.788;2024-01-10T13:46:25;2.60;71.70
41928;DHT22;27616;51.420;6.788;2024-01-10T13:48:50;2.30;72.80
41928;DHT22;27616;51.420;6.788;2024-01-10T13:51:16;2.10;74.00
41928;DHT22;27616;51.420;6.788;2024-01-10T13:53:41;1.90;75.90
41928;DHT22;27616;51.420;6.788;2024-01-10T13:56:07;1.80;75.80
41928;DHT22;27616;51.420;6.788;2024-01-10T13:58:33;1.70;75.30
41928;DHT22;27616;51.420;6.788;2024-01-10T14:00:59;1.50;76.40
41928;DHT22;27616;51.420;6.788;2024-01-10T14:03:25;1.60;76.00
41928;DHT22;27616;51.420;6.788;2024-01-10T14:05:50;1.30;76.80
41928;DHT22;27616;51.420;6.788;2024-01-10T14:08:16;1.10;78.50
41928;DHT22;27616;51.420;6.788;2024-01-10T14:10:41;1.00;80.00
41928;DHT22;27616;51.420;6.788;2024-01-10T14:13:07;0.90;81.60
41928;DHT22;27616;51.420;6.788;2024-01-10T14:15:33;0.90;81.10
41928;DHT22;27616;51.420;6.788;2024-01-10T14:17:59;0.80;82.10
41928;DHT22;27616;51.420;6.788;2024-01-10T14:20:24;0.80;82.20
41928;DHT22;27616;51.420;6.788;2024-01-10T14:22:50;0.70;82.50
41928;DHT22;27616;51.420;6.788;2024-01-10T14:25:16;0.60;81.40
41928;DHT22;27616;51.420;6.788;2024-01-10T14:27:41;0.50;82.50
41928;DHT22;27616;51.420;6.788;2024-01-10T14:30:07;0.40;82.20
41928;DHT22;27616;51.420;6.788;2024-01-10T14:32:34;0.40;81.90
41928;DHT22;27616;51.420;6.788;2024-01-10T14:34:59;0.40;82.50
41928;DHT22;27616;51.420;6.788;2024-01-10T14:37:25;0.40;81.70
41928;DHT22;27616;51.420;6.788;2024-01-10T14:39:51;0.40;82.20
41928;DHT22;27616;51.420;6.788;2024-01-10T14:42:16;0.30;82.90
41928;DHT22;27616;51.420;6.788;2024-01-10T14:44:43;0.30;85.00
41928;DHT22;27616;51.420;6.788;2024-01-10T14:47:08;0.30;84.20
41928;DHT22;27616;51.420;6.788;2024-01-10T14:49:34;0.30;83.90
41928;DHT22;27616;51.420;6.788;2024-01-10T14:51:59;0.20;84.30
41928;DHT22;27616;51.420;6.788;2024-01-10T14:54:25;0.20;84.20
41928;DHT22;27616;51.420;6.788;2024-01-10T14:56:50;0.20;85.30
41928;DHT22;27616;51.420;6.788;2024-01-10T14:59:18;0.20;84.60
41928;DHT22;27616;51.420;6.788;2024-01-10T15:01:45;0.20;84.70
41928;DHT22;27616;51.420;6.788;2024-01-10T15:04:11;0.20;84.90
41928;DHT22;27616;51.420;6.788;2024-01-10T15:06:42;0.20;85.30
41928;DHT22;27616;51.420;6.788;2024-01-10T15:09:08;0.10;84.90
41928;DHT22;27616;51.420;6.788;2024-01-10T15:11:35;0.10;85.10
41928;DHT22;27616;51.420;6.788;2024-01-10T15:14:01;0.00;85.00
41928;DHT22;27616;51.420;6.788;2024-01-10T15:16:26;0.00;85.20
41928;DHT22;27616;51.420;6.788;2024-01-10T15:18:52;-0.10;85.70
41928;DHT22;27616;51.420;6.788;2024-01-10T15:21:17;-0.10;87.20
41928;DHT22;27616;51.420;6.788;2024-01-10T15:23:45;-0.10;86.50
41928;DHT22;27616;51.420;6.788;2024-01-10T15:26:15;-0.20;87.00
41928;DHT22;27616;51.420;6.788;2024-01-10T15:28:43;-0.30;88.00
41928;DHT22;27616;51.420;6.788;2024-01-10T15:31:18;-0.40;87.80
41928;DHT22;27616;51.420;6.788;2024-01-10T15:33:44;-0.40;88.00
41928;DHT22;27616;51.420;6.788;2024-01-10T15:36:10;-0.50;88.50
41928;DHT22;27616;51.420;6.788;2024-01-10T15:38:36;-0.50;88.40
41928;DHT22;27616;51.420;6.788;2024-01-10T15:41:06;-0.50;89.00
41928;DHT22;27616;51.420;6.788;2024-01-10T15:43:32;-0.60;89.60
41928;DHT22;27616;51.420;6.788;2024-01-10T15:45:58;-0.60;89.70